sensor_id;sensor_type;location;lat;lon;timestamp;temperature;humidity
41630;DHT22;27322;49.488;8.480;2023-11-19T00:01:36;9.80;99.90
41630;DHT22;27322;49.488;8.480;2023-11-19T00:04:02;9.80;99.90
41630;DHT22;27322;49.488;8.480;2023-11-19T00:06:30;9.80;99.90
41630;DHT22;27322;49.488;8.480;2023-11-19T00:08:55;9.80;99.90
41630;DHT22;27322;49.488;8.480;2023-11-19T00:11:21;9.80;99.90
41630;DHT22;27322;49.488;8.480;2023-11-19T00:13:47;9.70;99.90
41630;DHT22;27322;49.488;8.480;2023-11-19T00:16:12;9.80;99.90
41630;DHT22;27322;49.488;8.480;2023-11-19T00:18:38;9.80;99.90
41630;DHT22;27322;49.488;8.480;2023-11-19T00:21:03;9.80;99.90
41630;DHT22;27322;49.488;8.480;2023-11-19T00:23:29;9.80;99.90
41630;DHT22;27322;49.488;8.480;2023-11-19T00:25:55;9.80;99.90
41630;DHT22;27322;49.488;8.480;2023-11-19T00:28:20;9.80;99.90
41630;DHT22;27322;49.488;8.480;2023-11-19T00:30:46;9.80;99.90
41630;DHT22;27322;49.488;8.480;2023-11-19T00:33:11;9.80;99.90
41630;DHT22;27322;49.488;8.480;2023-11-19T00:35:37;9.80;99.90
41630;DHT22;27322;49.488;8.480;2023-11-19T00:38:02;9.80;99.90
41630;DHT22;27322;49.488;8.480;2023-11-19T00:40:29;9.80;99.90
41630;DHT22;27322;49.488;8.480;2023-11-19T00:42:54;9.80;99.90
41630;DHT22;27322;49.488;8.480;2023-11-19T00:45:20;9.80;99.90
41630;DHT22;27322;49.488;8.480;2023-11-19T00:47:48;9.80;99.90
41630;DHT22;27322;49.488;8.480;2023-11-19T00:50:14;9.80;99.90
41630;DHT22;27322;49.488;8.480;2023-11-19T00:52:39;9.80;99.90
41630;DHT22;27322;49.488;8.480;2023-11-19T00:55:06;9.80;99.90
41630;DHT22;27322;49.488;8.480;2023-11-19T00:57:32;9.80;99.90
41630;DHT22;27322;49.488;8.480;2023-11-19T01:00:00;9.80;99.90
41630;DHT22;27322;49.488;8.480;2023-11-19T01:02:26;9.80;99.90
41630;DHT22;27322;49.488;8.480;2023-11-19T01:04:52;9.80;99.90
41630;DHT22;27322;49.488;8.480;2023-11-19T01:07:17;9.80;99.90
41630;DHT22;27322;49.488;8.480;2023-11-19T01:09:43;9.80;99.90
41630;DHT22;27322;49.488;8.480;2023-11-19T01:12:09;9.90;99.90
41630;DHT22;27322;49.488;8.480;2023-11-19T01:14:35;9.90;99.90
41630;DHT22;27322;49.488;8.480;2023-11-19T01:17:01;9.90;99.90
41630;DHT22;27322;49.488;8.480;2023-11-19T01:19:27;9.90;99.90
41630;DHT22;27322;49.488;8.480;2023-11-19T01:21:53;9.90;99.90
41630;DHT22;27322;49.488;8.480;2023-11-19T01:24:19;9.90;99.90
41630;DHT22;27322;49.488;8.480;2023-11-19T01:26:45;9.90;99.90
41630;DHT22;27322;49.488;8.480;2023-11-19T01:29:14;9.80;99.90
41630;DHT22;27322;49.488;8.480;2023-11-19T01:31:45;9.80;99.90
41630;DHT22;27322;49.488;8.480;2023-11-19T01:34:11;9.80;99.90
41630;DHT22;27322;49.488;8.480;2023-11-19T01:36:39;9.90;99.90
41630;DHT22;27322;49.488;8.480;2023-11-19T01:39:05;9.90;99.90
41630;DHT22;27322;49.488;8.480;2023-11-19T01:41:37;9.90;99.90
41630;DHT22;27322;49.488;8.480;2023-11-19T01:44:06;9.90;99.90
41630;DHT22;27322;49.488;8.480;2023-11-19T01:46:32;9.90;99.90
41630;DHT22;27322;49.488;8.480;2023-11-19T01:48:59;9.90;99.90
41630;DHT22;27322;49.488;8.480;2023-11-19T01:51:25;9.90;99.90
41630;DHT22;27322;49.488;8.480;2023-11-19T01:53:52;9.90;99.90
41630;DHT22;27322;49.488;8.480;2023-11-19T01:56:18;9.90;99.90
41630;DHT22;27322;49.488;8.480;2023-11-19T01:58:45;9.90;99.90
41630;DHT22;27322;49.488;8.480;2023-11-19T02:01:11;9.90;99.90
41630;DHT22;27322;49.488;8.480;2023-11-19T02:03:38;9.90;99.90
41630;DHT22;27322;49.488;8.480;2023-11-19T02:06:04;10.00;99.90
41630;DHT22;27322;49.488;8.480;2023-11-19T02:08:30;10.00;99.90
41630;DHT22;27322;49.488;8.480;2023-11-19T02:10:55;9.90;99.90
41630;DHT22;27322;49.488;8.480;2023-11-19T02:13:26;9.90;99.90
41630;DHT22;27322;49.488;8.480;2023-11-19T02:15:52;9.90;99.90
41630;DHT22;27322;49.488;8.480;2023-11-19T02:18:25;10.00;99.90
41630;DHT22;27322;49.488;8.480;2023-11-19T02:20:57;10.00;99.90
41630;DHT22;27322;49.488;8.480;2023-11-19T02:23:23;10.00;99.90
41630;DHT22;27322;49.488;8.480;2023-11-19T02:28:26;10.00;99.90
41630;DHT22;27322;49.488;8.480;2023-11-19T02:30:52;10.00;99.90
41630;DHT22;27322;49.488;8.480;2023-11-19T02:33:18;10.00;99.90
41630;DHT22;27322;49.488;8.480;2023-11-19T02:35:44;10.00;99.90
41630;DHT22;27322;49.488;8.480;2023-11-19T02:38:09;10.00;99.90
41630;DHT22;27322;49.488;8.480;2023-11-19T02:40:36;10.10;99.90
41630;DHT22;27322;49.488;8.480;2023-11-19T02:43:02;10.00;99.90
41630;DHT22;27322;49.488;8.480;2023-11-19T02:45:30;10.10;99.90
41630;DHT22;27322;49.488;8.480;2023-11-19T02:47:56;10.10;99.90
41630;DHT22;27322;49.488;8.480;2023-11-19T02:50:22;10.10;99.90
41630;DHT22;27322;49.488;8.480;2023-11-19T02:52:52;10.10;99.90
41630;DHT22;27322;49.488;8.480;2023-11-19T02:55:18;10.10;99.90
41630;DHT22;27322;49.488;8.480;2023-11-19T02:57:45;10.10;99.90
41630;DHT22;27322;49.488;8.480;2023-11-19T03:00:15;10.10;99.90
41630;DHT22;27322;49.488;8.480;2023-11-19T03:02:41;10.20;99.90
41630;DHT22;27322;49.488;8.480;2023-11-19T03:05:19;10.10;99.90
41630;DHT22;27322;49.488;8.480;2023-11-19T03:07:45;10.10;99.90
41630;DHT22;27322;49.488;8.480;2023-11-19T03:10:11;10.20;99.90
41630;DHT22;27322;49.488;8.480;2023-11-19T03:12:39;10.20;99.90
41630;DHT22;27322;49.488;8.480;2023-11-19T03:15:06;10.20;99.90
41630;DHT22;27322;49.488;8.480;2023-11-19T03:17:32;10.20;99.90
41630;DHT22;27322;49.488;8.480;2023-11-19T03:19:59;10.20;99.90
41630;DHT22;27322;49.488;8.480;2023-11-19T03:22:26;10.20;99.90
41630;DHT22;27322;49.488;8.480;2023-11-19T03:24:52;10.20;99.90
41630;DHT22;27322;49.488;8.480;2023-11-19T03:27:17;10.20;99.90
41630;DHT22;27322;49.488;8.480;2023-11-19T03:29:43;10.20;99.90
41630;DHT22;27322;49.488;8.480;2023-11-19T03:32:08;10.20;99.90
41630;DHT22;27322;49.488;8.480;2023-11-19T03:34:34;10.20;99.90
41630;DHT22;27322;49.488;8.480;2023-11-19T03:36:59;10.30;99.90
41630;DHT22;27322;49.488;8.480;2023-11-19T03:39:25;10.30;99.90
41630;DHT22;27322;49.488;8.480;2023-11-19T03:41:52;10.30;99.90
41630;DHT22;27322;49.488;8.480;2023-11-19T03:44:18;10.30;99.90
41630;DHT22;27322;49.488;8.480;2023-11-19T03:46:44;10.30;99.90
41630;DHT22;27322;49.488;8.480;2023-11-19T03:49:10;10.40;99.90
41630;DHT22;27322;49.488;8.480;2023-11-19T03:51:35;10.30;99.90
41630;DHT22;27322;49.488;8.480;2023-11-19T03:54:01;10.30;99.90
41630;DHT22;27322;49.488;8.480;2023-11-19T03:56:26;10.30;99.90
41630;DHT22;27322;49.488;8.480;2023-11-19T03:58:56;10.40;99.90
41630;DHT22;27322;49.488;8.480;2023-11-19T04:01:22;10.40;99.90
41630;DHT22;27322;49.488;8.480;2023-11-19T04:03:47;10.40;99.90
41630;DHT22;27322;49.488;8.480;2023-11-19T04:06:13;10.40;99.90
41630;DHT22;27322;49.488;8.480;2023-11-19T04:08:38;10.40;99.90
41630;DHT22;27322;49.488;8.480;2023-11-19T04:11:04;10.40;99.90
41630;DHT22;27322;49.488;8.480;2023-11-19T04:13:30;10.50;99.90
41630;DHT22;27322;49.488;8.480;2023-11-19T04:15:56;10.40;99.90
41630;DHT22;27322;49.488;8.480;2023-11-19T04:18:21;10.50;99.90
41630;DHT22;27322;49.488;8.480;2023-11-19T04:20:47;10.50;99.90
41630;DHT22;27322;49.488;8.480;2023-11-19T04:23:12;10.50;99.90
41630;DHT22;27322;49.488;8.480;2023-11-19T04:25:38;10.50;99.90
41630;DHT22;27322;49.488;8.480;2023-11-19T04:28:03;10.50;99.90
41630;DHT22;27322;49.488;8.480;2023-11-19T04:30:29;10.50;99.90
41630;DHT22;27322;49.488;8.480;2023-11-19T04:32:57;10.50;99.90
41630;DHT22;27322;49.488;8.480;2023-11-19T04:35:23;10.50;99.90
41630;DHT22;27322;49.488;8.480;2023-11-19T04:37:48;10.50;99.90
41630;DHT22;27322;49.488;8.480;2023-11-19T04:40:14;10.60;99.90
41630;DHT22;27322;49.488;8.480;2023-11-19T04:42:40;10.60;99.90
41630;DHT22;27322;49.488;8.480;2023-11-19T04:45:06;10.60;99.90
41630;DHT22;27322;49.488;8.480;2023-11-19T04:47:33;10.60;99.90
41630;DHT22;27322;49.488;8.480;2023-11-19T04:49:58;10.60;99.90
41630;DHT22;27322;49.488;8.480;2023-11-19T04:52:24;10.70;99.90
41630;DHT22;27322;49.488;8.480;2023-11-19T04:54:50;10.60;99.90
41630;DHT22;27322;49.488;8.480;2023-11-19T04:57:15;10.70;99.90
41630;DHT22;27322;49.488;8.480;2023-11-19T04:59:41;10.70;99.90
41630;DHT22;27322;49.488;8.480;2023-11-19T05:02:08;10.70;99.90
41630;DHT22;27322;49.488;8.480;2023-11-19T05:04:33;10.70;99.90
41630;DHT22;27322;49.488;8.480;2023-11-19T05:06:59;10.70;99.90
41630;DHT22;27322;49.488;8.480;2023-11-19T05:09:25;10.70;99.90
41630;DHT22;27322;49.488;8.480;2023-11-19T05:11:50;10.80;99.90
41630;DHT22;27322;49.488;8.480;2023-11-19T05:14:16;10.80;99.90
41630;DHT22;27322;49.488;8.480;2023-11-19T05:16:42;10.80;99.90
41630;DHT22;27322;49.488;8.480;2023-11-19T05:19:10;10.80;99.90
41630;DHT22;27322;49.488;8.480;2023-11-19T05:21:36;10.80;99.90
41630;DHT22;27322;49.488;8.480;2023-11-19T05:24:02;10.80;99.90
41630;DHT22;27322;49.488;8.480;2023-11-19T05:26:30;10.90;99.90
41630;DHT22;27322;49.488;8.480;2023-11-19T05:28:56;10.80;99.90
41630;DHT22;27322;49.488;8.480;2023-11-19T05:31:22;10.90;99.90
41630;DHT22;27322;49.488;8.480;2023-11-19T05:33:47;10.90;99.90
41630;DHT22;27322;49.488;8.480;2023-11-19T05:36:13;10.90;99.90
41630;DHT22;27322;49.488;8.480;2023-11-19T05:38:39;10.90;99.90
41630;DHT22;27322;49.488;8.480;2023-11-19T05:41:05;10.90;99.90
41630;DHT22;27322;49.488;8.480;2023-11-19T05:43:31;10.90;99.90
41630;DHT22;27322;49.488;8.480;2023-11-19T05:45:57;10.90;99.90
41630;DHT22;27322;49.488;8.480;2023-11-19T05:48:23;10.90;99.90
41630;DHT22;27322;49.488;8.480;2023-11-19T05:50:49;10.90;99.90
41630;DHT22;27322;49.488;8.480;2023-11-19T05:53:15;11.00;99.90
41630;DHT22;27322;49.488;8.480;2023-11-19T05:55:41;11.00;99.90
41630;DHT22;27322;49.488;8.480;2023-11-19T05:58:24;11.00;99.90
41630;DHT22;27322;49.488;8.480;2023-11-19T06:00:52;11.00;99.90
41630;DHT22;27322;49.488;8.480;2023-11-19T06:03:17;11.00;99.90
41630;DHT22;27322;49.488;8.480;2023-11-19T06:05:46;11.00;99.90
41630;DHT22;27322;49.488;8.480;2023-11-19T06:08:12;11.00;99.90
41630;DHT22;27322;49.488;8.480;2023-11-19T06:10:42;11.10;99.90
41630;DHT22;27322;49.488;8.480;2023-11-19T06:13:08;11.00;99.90
41630;DHT22;27322;49.488;8.480;2023-11-19T06:15:35;11.10;99.90
41630;DHT22;27322;49.488;8.480;2023-11-19T06:18:01;11.10;99.90
41630;DHT22;27322;49.488;8.480;2023-11-19T06:20:29;11.10;99.90
41630;DHT22;27322;49.488;8.480;2023-11-19T06:22:56;11.10;99.90
41630;DHT22;27322;49.488;8.480;2023-11-19T06:25:22;11.10;99.90
41630;DHT22;27322;49.488;8.480;2023-11-19T06:27:49;11.10;99.90
41630;DHT22;27322;49.488;8.480;2023-11-19T06:30:15;11.20;99.90
41630;DHT22;27322;49.488;8.480;2023-11-19T06:32:42;11.20;99.90
41630;DHT22;27322;49.488;8.480;2023-11-19T06:35:07;11.20;99.90
41630;DHT22;27322;49.488;8.480;2023-11-19T06:37:33;11.20;99.90
41630;DHT22;27322;49.488;8.480;2023-11-19T06:39:59;11.20;99.90
41630;DHT22;27322;49.488;8.480;2023-11-19T06:42:25;11.20;99.90
41630;DHT22;27322;49.488;8.480;2023-11-19T06:44:50;11.20;99.90
41630;DHT22;27322;49.488;8.480;2023-11-19T06:47:17;11.30;99.90
41630;DHT22;27322;49.488;8.480;2023-11-19T06:49:45;11.30;99.90
41630;DHT22;27322;49.488;8.480;2023-11-19T06:52:11;11.20;99.90
41630;DHT22;27322;49.488;8.480;2023-11-19T06:54:39;11.30;99.90
41630;DHT22;27322;49.488;8.480;2023-11-19T06:57:05;11.30;99.90
41630;DHT22;27322;49.488;8.480;2023-11-19T06:59:30;11.30;99.90
41630;DHT22;27322;49.488;8.480;2023-11-19T07:01:56;11.30;99.90
41630;DHT22;27322;49.488;8.480;2023-11-19T07:04:22;11.30;99.90
41630;DHT22;27322;49.488;8.480;2023-11-19T07:06:47;11.30;99.90
41630;DHT22;27322;49.488;8.480;2023-11-19T07:09:14;11.30;99.90
41630;DHT22;27322;49.488;8.480;2023-11-19T07:11:40;11.30;99.90
41630;DHT22;27322;49.488;8.480;2023-11-19T07:14:07;11.30;99.90
41630;DHT22;27322;49.488;8.480;2023-11-19T07:16:33;11.30;99.90
41630;DHT22;27322;49.488;8.480;2023-11-19T07:19:05;11.30;99.90
41630;DHT22;27322;49.488;8.480;2023-11-19T07:21:31;11.30;99.90
41630;DHT22;27322;49.488;8.480;2023-11-19T07:23:58;11.30;99.90
41630;DHT22;27322;49.488;8.480;2023-11-19T07:26:25;11.30;99.90
41630;DHT22;27322;49.488;8.480;2023-11-19T07:28:50;11.30;99.90
41630;DHT22;27322;49.488;8.480;2023-11-19T07:31:17;11.30;99.90
41630;DHT22;27322;49.488;8.480;2023-11-19T07:33:45;11.30;99.90
41630;DHT22;27322;49.488;8.480;2023-11-19T07:36:11;11.30;99.90
41630;DHT22;27322;49.488;8.480;2023-11-19T07:38:37;11.40;99.90
41630;DHT22;27322;49.488;8.480;2023-11-19T07:41:04;11.40;99.90
41630;DHT22;27322;49.488;8.480;2023-11-19T07:43:30;11.40;99.90
41630;DHT22;27322;49.488;8.480;2023-11-19T07:45:56;11.40;99.90
41630;DHT22;27322;49.488;8.480;2023-11-19T07:48:24;11.50;99.90
41630;DHT22;27322;49.488;8.480;2023-11-19T07:50:50;11.50;99.90
41630;DHT22;27322;49.488;8.480;2023-11-19T07:53:16;11.50;99.90
41630;DHT22;27322;49.488;8.480;2023-11-19T07:55:42;11.60;99.90
41630;DHT22;27322;49.488;8.480;2023-11-19T07:58:10;11.60;99.90
41630;DHT22;27322;49.488;8.480;2023-11-19T08:00:35;11.70;99.90
41630;DHT22;27322;49.488;8.480;2023-11-19T08:03:01;11.70;99.90
41630;DHT22;27322;49.488;8.480;2023-11-19T08:05:26;11.70;99.90
41630;DHT22;27322;49.488;8.480;2023-11-19T08:07:52;11.80;99.90
41630;DHT22;27322;49.488;8.480;2023-11-19T08:10:19;11.80;99.90
41630;DHT22;27322;49.488;8.480;2023-11-19T08:12:44;11.80;99.90
41630;DHT22;27322;49.488;8.480;2023-11-19T08:15:10;11.80;99.90
41630;DHT22;27322;49.488;8.480;2023-11-19T08:17:36;11.80;99.90
41630;DHT22;27322;49.488;8.480;2023-11-19T08:20:02;11.80;99.90
41630;DHT22;27322;49.488;8.480;2023-11-19T08:22:28;11.80;99.90
41630;DHT22;27322;49.488;8.480;2023-11-19T08:24:53;11.90;99.90
41630;DHT22;27322;49.488;8.480;2023-11-19T08:27:19;11.80;99.90
41630;DHT22;27322;49.488;8.480;2023-11-19T08:29:54;11.80;99.90
41630;DHT22;27322;49.488;8.480;2023-11-19T08:32:24;11.80;99.90
41630;DHT22;27322;49.488;8.480;2023-11-19T08:34:50;11.90;99.90
41630;DHT22;27322;49.488;8.480;2023-11-19T08:37:15;11.80;99.90
41630;DHT22;27322;49.488;8.480;2023-11-19T08:39:43;11.80;99.90
41630;DHT22;27322;49.488;8.480;2023-11-19T08:42:09;11.90;99.90
41630;DHT22;27322;49.488;8.480;2023-11-19T08:44:34;11.90;99.90
41630;DHT22;27322;49.488;8.480;2023-11-19T08:47:00;11.90;99.90
41630;DHT22;27322;49.488;8.480;2023-11-19T08:49:25;11.80;99.90
41630;DHT22;27322;49.488;8.480;2023-11-19T08:51:51;11.80;99.90
41630;DHT22;27322;49.488;8.480;2023-11-19T08:54:16;11.90;99.90
41630;DHT22;27322;49.488;8.480;2023-11-19T08:56:42;11.90;99.90
41630;DHT22;27322;49.488;8.480;2023-11-19T08:59:08;11.90;99.90
41630;DHT22;27322;49.488;8.480;2023-11-19T09:01:34;12.00;99.90
41630;DHT22;27322;49.488;8.480;2023-11-19T09:03:59;12.00;99.90
41630;DHT22;27322;49.488;8.480;2023-11-19T09:06:25;12.00;99.90
41630;DHT22;27322;49.488;8.480;2023-11-19T09:08:50;12.00;99.90
41630;DHT22;27322;49.488;8.480;2023-11-19T09:11:16;12.00;99.90
41630;DHT22;27322;49.488;8.480;2023-11-19T09:13:42;12.10;99.90
41630;DHT22;27322;49.488;8.480;2023-11-19T09:16:08;12.10;99.90
41630;DHT22;27322;49.488;8.480;2023-11-19T09:18:34;12.20;99.90
41630;DHT22;27322;49.488;8.480;2023-11-19T09:21:00;12.20;99.90
41630;DHT22;27322;49.488;8.480;2023-11-19T09:23:26;12.20;99.90
41630;DHT22;27322;49.488;8.480;2023-11-19T09:25:53;12.30;99.90
41630;DHT22;27322;49.488;8.480;2023-11-19T09:28:18;12.30;99.90
41630;DHT22;27322;49.488;8.480;2023-11-19T09:30:44;12.40;99.90
41630;DHT22;27322;49.488;8.480;2023-11-19T09:33:10;12.40;99.90
41630;DHT22;27322;49.488;8.480;2023-11-19T09:35:35;12.40;99.90
41630;DHT22;27322;49.488;8.480;2023-11-19T09:38:01;12.50;99.90
41630;DHT22;27322;49.488;8.480;2023-11-19T09:40:27;12.60;99.90
41630;DHT22;27322;49.488;8.480;2023-11-19T09:42:54;12.60;99.90
41630;DHT22;27322;49.488;8.480;2023-11-19T09:45:21;12.70;99.90
41630;DHT22;27322;49.488;8.480;2023-11-19T09:47:47;12.70;99.90
41630;DHT22;27322;49.488;8.480;2023-11-19T09:50:19;12.70;99.90
41630;DHT22;27322;49.488;8.480;2023-11-19T09:52:48;12.70;99.90
41630;DHT22;27322;49.488;8.480;2023-11-19T09:55:14;12.80;99.90
41630;DHT22;27322;49.488;8.480;2023-11-19T09:57:40;12.80;99.90
41630;DHT22;27322;49.488;8.480;2023-11-19T10:00:11;12.80;99.90
41630;DHT22;27322;49.488;8.480;2023-11-19T10:02:39;12.80;99.90
41630;DHT22;27322;49.488;8.480;2023-11-19T10:05:06;12.80;99.90
41630;DHT22;27322;49.488;8.480;2023-11-19T10:07:33;12.80;99.90
41630;DHT22;27322;49.488;8.480;2023-11-19T10:10:03;12.90;99.90
41630;DHT22;27322;49.488;8.480;2023-11-19T10:12:33;12.80;99.90
41630;DHT22;27322;49.488;8.480;2023-11-19T10:14:59;12.90;99.90
41630;DHT22;27322;49.488;8.480;2023-11-19T10:17:28;12.90;99.90
41630;DHT22;27322;49.488;8.480;2023-11-19T10:19:57;12.90;99.90
41630;DHT22;27322;49.488;8.480;2023-11-19T10:22:23;13.00;99.90
41630;DHT22;27322;49.488;8.480;2023-11-19T10:24:50;13.00;99.90
41630;DHT22;27322;49.488;8.480;2023-11-19T10:27:16;13.10;99.90
41630;DHT22;27322;49.488;8.480;2023-11-19T10:29:47;13.10;99.90
41630;DHT22;27322;49.488;8.480;2023-11-19T10:32:14;13.20;99.90
41630;DHT22;27322;49.488;8.480;2023-11-19T10:34:42;13.20;99.90
41630;DHT22;27322;49.488;8.480;2023-11-19T10:37:08;13.20;99.90
41630;DHT22;27322;49.488;8.480;2023-11-19T10:39:54;13.20;99.90
41630;DHT22;27322;49.488;8.480;2023-11-19T10:42:20;13.20;99.90
41630;DHT22;27322;49.488;8.480;2023-11-19T10:44:46;13.20;99.90
41630;DHT22;27322;49.488;8.480;2023-11-19T10:47:13;13.20;99.90
41630;DHT22;27322;49.488;8.480;2023-11-19T10:49:39;13.30;99.90
41630;DHT22;27322;49.488;8.480;2023-11-19T10:52:08;13.30;99.90
41630;DHT22;27322;49.488;8.480;2023-11-19T10:54:34;13.30;99.90
41630;DHT22;27322;49.488;8.480;2023-11-19T10:57:01;13.30;99.90
41630;DHT22;27322;49.488;8.480;2023-11-19T10:59:31;13.30;99.90
41630;DHT22;27322;49.488;8.480;2023-11-19T11:02:03;13.30;99.90
41630;DHT22;27322;49.488;8.480;2023-11-19T11:04:32;13.30;99.90
41630;DHT22;27322;49.488;8.480;2023-11-19T11:06:59;13.30;99.90
41630;DHT22;27322;49.488;8.480;2023-11-19T11:09:27;13.30;99.90
41630;DHT22;27322;49.488;8.480;2023-11-19T11:11:54;13.20;99.90
41630;DHT22;27322;49.488;8.480;2023-11-19T11:14:21;13.30;99.90
41630;DHT22;27322;49.488;8.480;2023-11-19T11:16:48;13.20;99.90
41630;DHT22;27322;49.488;8.480;2023-11-19T11:19:16;13.20;99.90
41630;DHT22;27322;49.488;8.480;2023-11-19T11:21:47;13.20;99.90
41630;DHT22;27322;49.488;8.480;2023-11-19T11:29:14;13.20;99.90
41630;DHT22;27322;49.488;8.480;2023-11-19T11:39:57;13.20;99.90
41630;DHT22;27322;49.488;8.480;2023-11-19T11:45:14;13.20;99.90
41630;DHT22;27322;49.488;8.480;2023-11-19T11:50:13;13.20;99.90
41630;DHT22;27322;49.488;8.480;2023-11-19T11:55:36;13.30;99.90
41630;DHT22;27322;49.488;8.480;2023-11-19T11:58:05;13.20;99.90
41630;DHT22;27322;49.488;8.480;2023-11-19T12:00:51;13.30;99.90
41630;DHT22;27322;49.488;8.480;2023-11-19T12:03:21;13.30;99.90
41630;DHT22;27322;49.488;8.480;2023-11-19T12:05:48;13.40;99.90
41630;DHT22;27322;49.488;8.480;2023-11-19T12:08:14;13.40;99.90
41630;DHT22;27322;49.488;8.480;2023-11-19T12:13:16;13.50;99.90
41630;DHT22;27322;49.488;8.480;2023-11-19T12:18:31;13.50;99.90
41630;DHT22;27322;49.488;8.480;2023-11-19T12:20:58;13.50;99.90
41630;DHT22;27322;49.488;8.480;2023-11-19T12:23:30;13.50;99.90
41630;DHT22;27322;49.488;8.480;2023-11-19T12:25:56;13.50;99.90
41630;DHT22;27322;49.488;8.480;2023-11-19T12:28:22;13.50;99.90
41630;DHT22;27322;49.488;8.480;2023-11-19T12:30:49;13.50;99.90
41630;DHT22;27322;49.488;8.480;2023-11-19T12:33:16;13.50;99.90
41630;DHT22;27322;49.488;8.480;2023-11-19T12:35:46;13.50;99.90
41630;DHT22;27322;49.488;8.480;2023-11-19T12:38:23;13.50;99.90
41630;DHT22;27322;49.488;8.480;2023-11-19T12:41:08;13.50;99.90
41630;DHT22;27322;49.488;8.480;2023-11-19T12:43:37;13.50;99.90
41630;DHT22;27322;49.488;8.480;2023-11-19T12:46:22;13.50;99.90
41630;DHT22;27322;49.488;8.480;2023-11-19T12:48:51;13.50;99.90
41630;DHT22;27322;49.488;8.480;2023-11-19T12:51:17;13.50;99.90
41630;DHT22;27322;49.488;8.480;2023-11-19T12:53:53;13.50;99.90
41630;DHT22;27322;49.488;8.480;2023-11-19T12:56:24;13.50;99.90
41630;DHT22;27322;49.488;8.480;2023-11-19T12:58:50;13.50;99.90
41630;DHT22;27322;49.488;8.480;2023-11-19T13:01:20;13.50;99.90
41630;DHT22;27322;49.488;8.480;2023-11-19T13:03:46;13.50;99.90
41630;DHT22;27322;49.488;8.480;2023-11-19T13:06:15;13.50;99.90
41630;DHT22;27322;49.488;8.480;2023-11-19T13:08:47;13.50;99.90
41630;DHT22;27322;49.488;8.480;2023-11-19T13:11:34;13.50;99.90
41630;DHT22;27322;49.488;8.480;2023-11-19T13:14:02;13.50;99.90
41630;DHT22;27322;49.488;8.480;2023-11-19T13:16:35;13.50;99.90
41630;DHT22;27322;49.488;8.480;2023-11-19T13:19:01;13.50;99.90
41630;DHT22;27322;49.488;8.480;2023-11-19T13:21:28;13.50;99.90
41630;DHT22;27322;49.488;8.480;2023-11-19T13:23:55;13.50;99.90
41630;DHT22;27322;49.488;8.480;2023-11-19T13:26:21;13.50;99.90
41630;DHT22;27322;49.488;8.480;2023-11-19T13:28:46;13.50;99.90
41630;DHT22;27322;49.488;8.480;2023-11-19T13:31:12;13.50;99.90
41630;DHT22;27322;49.488;8.480;2023-11-19T13:33:38;13.50;99.90
41630;DHT22;27322;49.488;8.480;2023-11-19T13:36:04;13.40;99.90
41630;DHT22;27322;49.488;8.480;2023-11-19T13:38:34;13.40;99.90
41630;DHT22;27322;49.488;8.480;2023-11-19T13:41:03;13.40;99.90
41630;DHT22;27322;49.488;8.480;2023-11-19T13:43:29;13.40;99.90
41630;DHT22;27322;49.488;8.480;2023-11-19T13:45:56;13.40;99.90
41630;DHT22;27322;49.488;8.480;2023-11-19T13:48:22;13.40;99.90
41630;DHT22;27322;49.488;8.480;2023-11-19T13:50:47;13.40;99.90
41630;DHT22;27322;49.488;8.480;2023-11-19T13:53:13;13.40;99.90
41630;DHT22;27322;49.488;8.480;2023-11-19T13:55:38;13.40;99.90
41630;DHT22;27322;49.488;8.480;2023-11-19T13:58:04;13.40;99.90
41630;DHT22;27322;49.488;8.480;2023-11-19T14:00:30;13.40;99.90
41630;DHT22;27322;49.488;8.480;2023-11-19T14:02:55;13.40;99.90
41630;DHT22;27322;49.488;8.480;2023-11-19T14:05:21;13.40;99.90
41630;DHT22;27322;49.488;8.480;2023-11-19T14:07:46;13.40;99.90
41630;DHT22;27322;49.488;8.480;2023-11-19T14:10:16;13.50;99.90
41630;DHT22;27322;49.488;8.480;2023-11-19T14:12:42;13.40;99.90
41630;DHT22;27322;49.488;8.480;2023-11-19T14:15:09;13.50;99.90
41630;DHT22;27322;49.488;8.480;2023-11-19T14:17:38;13.40;99.90
41630;DHT22;27322;49.488;8.480;2023-11-19T14:20:05;13.40;99.90
41630;DHT22;27322;49.488;8.480;2023-11-19T14:22:39;13.40;99.90
41630;DHT22;27322;49.488;8.480;2023-11-19T14:25:05;13.50;99.90
41630;DHT22;27322;49.488;8.480;2023-11-19T14:27:44;13.50;99.90
41630;DHT22;27322;49.488;8.480;2023-11-19T14:30:12;13.50;99.90
41630;DHT22;27322;49.488;8.480;2023-11-19T14:32:42;13.50;99.90
41630;DHT22;27322;49.488;8.480;2023-11-19T14:35:09;13.50;99.90
41630;DHT22;27322;49.488;8.480;2023-11-19T14:37:34;13.50;99.90
41630;DHT22;27322;49.488;8.480;2023-11-19T14:40:00;13.50;99.90
41630;DHT22;27322;49.488;8.480;2023-11-19T14:42:29;13.50;99.90
41630;DHT22;27322;49.488;8.480;2023-11-19T14:44:54;13.50;99.90
41630;DHT22;27322;49.488;8.480;2023-11-19T14:47:23;13.50;99.90
41630;DHT22;27322;49.488;8.480;2023-11-19T14:49:49;13.50;99.90
41630;DHT22;27322;49.488;8.480;2023-11-19T14:52:15;13.50;99.90
41630;DHT22;27322;49.488;8.480;2023-11-19T14:54:40;13.50;99.90
41630;DHT22;27322;49.488;8.480;2023-11-19T14:57:06;13.50;99.90
41630;DHT22;27322;49.488;8.480;2023-11-19T14:59:38;13.50;99.90
41630;DHT22;27322;49.488;8.480;2023-11-19T15:02:04;13.50;99.90
41630;DHT22;27322;49.488;8.480;2023-11-19T15:04:31;13.50;99.90
41630;DHT22;27322;49.488;8.480;2023-11-19T15:06:57;13.60;99.90
41630;DHT22;27322;49.488;8.480;2023-11-19T15:09:23;13.50;99.90
41630;DHT22;27322;49.488;8.480;2023-11-19T15:11:50;13.50;99.90
41630;DHT22;27322;49.488;8.480;2023-11-19T15:14:16;13.50;99.90
41630;DHT22;27322;49.488;8.480;2023-11-19T15:16:44;13.50;99.90
41630;DHT22;27322;49.488;8.480;2023-11-19T15:19:10;13.50;99.90
41630;DHT22;27322;49.488;8.480;2023-11-19T15:21:38;13.50;99.90
41630;DHT22;27322;49.488;8.480;2023-11-19T15:24:04;13.60;99.90
41630;DHT22;27322;49.488;8.480;2023-11-19T15:26:35;13.50;99.90
41630;DHT22;27322;49.488;8.480;2023-11-19T15:29:04;13.50;99.90
41630;DHT22;27322;49.488;8.480;2023-11-19T15:31:30;13.50;99.90
41630;DHT22;27322;49.488;8.480;2023-11-19T15:33:56;13.40;99.90
41630;DHT22;27322;49.488;8.480;2023-11-19T15:36:22;13.40;99.90
41630;DHT22;27322;49.488;8.480;2023-11-19T15:38:48;13.40;99.90
41630;DHT22;27322;49.488;8.480;2023-11-19T15:41:14;13.40;99.90
41630;DHT22;27322;49.488;8.480;2023-11-19T15:43:40;13.40;99.90
41630;DHT22;27322;49.488;8.480;2023-11-19T15:46:09;13.40;99.90
41630;DHT22;27322;49.488;8.480;2023-11-19T15:48:35;13.40;99.90
41630;DHT22;27322;49.488;8.480;2023-11-19T15:51:01;13.40;99.90
41630;DHT22;27322;49.488;8.480;2023-11-19T15:53:28;13.40;99.90
41630;DHT22;27322;49.488;8.480;2023-11-19T15:55:53;13.40;99.90
41630;DHT22;27322;49.488;8.480;2023-11-19T15:58:19;13.40;99.90
41630;DHT22;27322;49.488;8.480;2023-11-19T16:00:46;13.40;99.90